createdAt,value
2022-11-03T00:09:35.040Z,3.02
2022-11-03T00:20:37.036Z,3.02
2022-11-03T00:31:25.011Z,3.01
2022-11-03T00:42:08.155Z,3.00
2022-11-03T00:53:18.874Z,2.98
2022-11-03T01:04:20.580Z,3.00
2022-11-03T01:15:23.253Z,3.00
2022-11-03T01:26:25.973Z,3.00
2022-11-03T01:37:28.472Z,3.00
2022-11-03T01:48:31.653Z,3.00
2022-11-03T01:59:30.212Z,3.00
2022-11-03T02:10:32.247Z,3.00
2022-11-03T02:21:34.537Z,3.00
2022-11-03T02:32:37.677Z,3.00
2022-11-03T02:43:40.174Z,3.00
2022-11-03T02:54:41.705Z,3.00
2022-11-03T03:05:26.766Z,2.99
2022-11-03T03:16:09.058Z,2.98
2022-11-03T03:27:10.322Z,2.98
2022-11-03T03:37:57.232Z,2.97
2022-11-03T03:48:58.479Z,2.98
2022-11-03T04:00:00.239Z,2.98
2022-11-03T04:11:02.920Z,2.97
2022-11-03T04:22:02.907Z,2.97
2022-11-03T04:33:04.640Z,2.97
2022-11-03T04:44:07.843Z,2.97
2022-11-03T04:55:06.037Z,2.97
2022-11-03T05:06:09.495Z,2.97
2022-11-03T05:17:12.501Z,2.97
2022-11-03T05:28:14.900Z,2.96
2022-11-03T05:39:14.264Z,2.96
2022-11-03T05:50:08.286Z,2.96
2022-11-03T06:01:04.850Z,2.96
2022-11-03T06:11:46.673Z,2.96
2022-11-03T06:22:39.919Z,2.96
2022-11-03T06:33:25.889Z,2.96
2022-11-03T06:44:09.153Z,2.97
2022-11-03T06:55:03.124Z,2.98
2022-11-03T07:05:57.458Z,2.99
2022-11-03T07:16:47.635Z,2.99
2022-11-03T07:27:28.373Z,2.99
2022-11-03T07:38:20.936Z,3.02
2022-11-03T07:49:01.411Z,3.05
2022-11-03T07:59:45.124Z,3.10
2022-11-03T08:10:47.102Z,3.13
2022-11-03T08:21:48.681Z,3.17
2022-11-03T08:32:49.860Z,3.19
2022-11-03T08:43:51.689Z,3.22
2022-11-03T08:54:53.052Z,3.22
2022-11-03T09:05:52.408Z,3.23
2022-11-03T09:16:52.459Z,3.23
2022-11-03T09:27:52.942Z,3.28
2022-11-03T09:38:54.840Z,3.29
2022-11-03T09:49:55.725Z,3.31
2022-11-03T10:00:54.490Z,3.34
2022-11-03T10:11:55.668Z,3.35
2022-11-03T10:22:57.111Z,3.28
2022-11-03T10:33:59.603Z,3.28
2022-11-03T10:45:00.424Z,3.28
2022-11-03T10:55:58.343Z,3.30
2022-11-03T11:06:58.627Z,3.36
2022-11-03T11:17:58.162Z,3.29
2022-11-03T11:28:58.899Z,3.30
2022-11-03T11:39:33.028Z,3.29
2022-11-03T11:50:07.619Z,3.34
2022-11-03T12:00:44.472Z,3.32
2022-11-03T12:11:45.467Z,3.31
2022-11-03T12:22:44.705Z,3.37
2022-11-03T12:33:42.902Z,3.31
2022-11-03T12:44:44.029Z,3.31
2022-11-03T12:55:44.923Z,3.36
2022-11-03T13:06:43.607Z,3.31
2022-11-03T13:17:59.708Z,3.33
2022-11-03T13:28:34.352Z,3.36
2022-11-03T13:39:19.509Z,3.34
2022-11-03T13:50:18.745Z,3.34
2022-11-03T14:01:11.740Z,3.34
2022-11-03T14:11:51.425Z,3.32
2022-11-03T14:22:38.728Z,3.30
2022-11-03T14:33:33.245Z,3.30
2022-11-03T14:44:21.421Z,3.28
2022-11-03T14:55:11.333Z,3.27
2022-11-03T15:06:05.560Z,3.27
2022-11-03T15:17:00.920Z,3.25
2022-11-03T15:27:56.270Z,3.24
2022-11-03T15:38:52.810Z,3.23
2022-11-03T15:49:41.990Z,3.22
2022-11-03T16:00:27.640Z,3.21
2022-11-03T16:11:09.920Z,3.19
2022-11-03T16:22:04.289Z,3.18
2022-11-03T16:32:53.547Z,3.17
2022-11-03T16:43:44.885Z,3.17
2022-11-03T16:54:39.216Z,3.16
2022-11-03T17:05:39.538Z,3.15
2022-11-03T17:16:38.866Z,3.15
2022-11-03T17:27:39.362Z,3.15
2022-11-03T17:38:39.366Z,3.14
2022-11-03T17:49:37.897Z,3.14
2022-11-03T18:00:38.447Z,3.13
2022-11-03T18:11:31.462Z,3.12
2022-11-03T18:22:31.803Z,3.12
2022-11-03T18:33:29.384Z,3.11
2022-11-03T18:44:25.370Z,3.10
2022-11-03T18:55:22.158Z,3.10
2022-11-03T19:06:19.632Z,3.10
2022-11-03T19:17:23.956Z,3.09
2022-11-03T19:28:24.336Z,3.09
2022-11-03T19:39:25.018Z,3.08
2022-11-03T19:50:26.280Z,3.08
2022-11-03T20:01:18.769Z,3.07
2022-11-03T20:11:55.745Z,3.05
2022-11-03T20:22:56.092Z,3.05
2022-11-03T20:33:33.087Z,3.04
2022-11-03T20:44:33.393Z,3.04
2022-11-03T20:55:34.453Z,3.04
2022-11-03T21:06:41.517Z,3.00
2022-11-03T21:17:19.820Z,3.02
2022-11-03T21:28:19.617Z,3.02
2022-11-03T21:39:20.154Z,3.02
2022-11-03T21:49:58.124Z,3.00
2022-11-03T22:00:55.113Z,3.00
2022-11-03T22:11:40.857Z,2.99
2022-11-03T22:22:41.943Z,3.00
2022-11-03T22:33:37.953Z,2.99
2022-11-03T22:44:38.731Z,2.99
2022-11-03T22:55:40.592Z,2.99
2022-11-03T23:06:44.251Z,2.99
2022-11-03T23:17:47.692Z,2.99
2022-11-03T23:28:50.175Z,2.99
2022-11-03T23:39:51.975Z,2.98
2022-11-03T23:50:35.329Z,2.97
